sensor_id;sensor_type;location;lat;lon;timestamp;temperature;humidity
18229;DHT22;9239;50.932;3.142;2022-12-29T00:01:24;11.80;99.90
18229;DHT22;9239;50.932;3.142;2022-12-29T00:03:51;11.80;99.90
18229;DHT22;9239;50.932;3.142;2022-12-29T00:06:18;11.80;99.90
18229;DHT22;9239;50.932;3.142;2022-12-29T00:08:45;11.80;99.90
18229;DHT22;9239;50.932;3.142;2022-12-29T00:11:15;11.90;99.90
18229;DHT22;9239;50.932;3.142;2022-12-29T00:13:42;11.90;99.90
18229;DHT22;9239;50.932;3.142;2022-12-29T00:16:28;11.80;99.90
18229;DHT22;9239;50.932;3.142;2022-12-29T00:18:55;11.80;99.90
18229;DHT22;9239;50.932;3.142;2022-12-29T00:21:22;11.80;99.90
18229;DHT22;9239;50.932;3.142;2022-12-29T00:24:11;11.80;99.90
18229;DHT22;9239;50.932;3.142;2022-12-29T00:27:09;11.90;99.90
18229;DHT22;9239;50.932;3.142;2022-12-29T00:29:54;12.00;99.90
18229;DHT22;9239;50.932;3.142;2022-12-29T00:32:38;12.00;99.90
18229;DHT22;9239;50.932;3.142;2022-12-29T00:35:27;12.00;99.90
18229;DHT22;9239;50.932;3.142;2022-12-29T00:37:55;12.00;99.90
18229;DHT22;9239;50.932;3.142;2022-12-29T00:40:41;12.10;99.90
18229;DHT22;9239;50.932;3.142;2022-12-29T00:43:27;12.00;99.90
18229;DHT22;9239;50.932;3.142;2022-12-29T00:46:11;12.00;99.90
18229;DHT22;9239;50.932;3.142;2022-12-29T00:48:38;11.90;99.90
18229;DHT22;9239;50.932;3.142;2022-12-29T00:51:22;12.00;99.90
18229;DHT22;9239;50.932;3.142;2022-12-29T00:53:49;11.90;99.90
18229;DHT22;9239;50.932;3.142;2022-12-29T00:56:16;12.00;99.90
18229;DHT22;9239;50.932;3.142;2022-12-29T00:58:44;11.90;99.90
18229;DHT22;9239;50.932;3.142;2022-12-29T01:01:11;11.90;99.90
18229;DHT22;9239;50.932;3.142;2022-12-29T01:03:38;11.80;99.90
18229;DHT22;9239;50.932;3.142;2022-12-29T01:06:07;11.80;99.90
18229;DHT22;9239;50.932;3.142;2022-12-29T01:08:34;11.80;99.90
18229;DHT22;9239;50.932;3.142;2022-12-29T01:11:03;11.80;99.90
18229;DHT22;9239;50.932;3.142;2022-12-29T01:13:29;11.80;99.90
18229;DHT22;9239;50.932;3.142;2022-12-29T01:15:58;11.90;99.90
18229;DHT22;9239;50.932;3.142;2022-12-29T01:18:25;11.90;99.90
18229;DHT22;9239;50.932;3.142;2022-12-29T01:20:58;11.80;99.90
18229;DHT22;9239;50.932;3.142;2022-12-29T01:23:25;11.80;99.90
18229;DHT22;9239;50.932;3.142;2022-12-29T01:25:52;11.80;99.90
18229;DHT22;9239;50.932;3.142;2022-12-29T01:28:18;11.70;99.90
18229;DHT22;9239;50.932;3.142;2022-12-29T01:30:45;11.70;99.90
18229;DHT22;9239;50.932;3.142;2022-12-29T01:33:14;11.70;99.90
18229;DHT22;9239;50.932;3.142;2022-12-29T01:35:40;11.80;99.90
18229;DHT22;9239;50.932;3.142;2022-12-29T01:38:07;11.80;99.90
18229;DHT22;9239;50.932;3.142;2022-12-29T01:40:43;11.70;99.90
18229;DHT22;9239;50.932;3.142;2022-12-29T01:43:11;11.80;99.90
18229;DHT22;9239;50.932;3.142;2022-12-29T01:45:40;11.80;99.90
18229;DHT22;9239;50.932;3.142;2022-12-29T01:48:09;11.80;99.90
18229;DHT22;9239;50.932;3.142;2022-12-29T01:50:41;11.80;99.90
18229;DHT22;9239;50.932;3.142;2022-12-29T01:53:11;11.80;99.90
18229;DHT22;9239;50.932;3.142;2022-12-29T01:55:42;11.70;99.90
18229;DHT22;9239;50.932;3.142;2022-12-29T01:58:12;11.80;99.90
18229;DHT22;9239;50.932;3.142;2022-12-29T02:00:40;11.80;99.90
18229;DHT22;9239;50.932;3.142;2022-12-29T02:03:08;11.70;99.90
18229;DHT22;9239;50.932;3.142;2022-12-29T02:05:40;11.60;99.90
18229;DHT22;9239;50.932;3.142;2022-12-29T02:08:09;11.60;99.90
18229;DHT22;9239;50.932;3.142;2022-12-29T02:10:36;11.50;99.90
18229;DHT22;9239;50.932;3.142;2022-12-29T02:13:04;11.40;99.90
18229;DHT22;9239;50.932;3.142;2022-12-29T02:15:38;11.30;99.90
18229;DHT22;9239;50.932;3.142;2022-12-29T02:18:18;11.20;99.90
18229;DHT22;9239;50.932;3.142;2022-12-29T02:24:21;11.00;99.90
18229;DHT22;9239;50.932;3.142;2022-12-29T02:30:12;10.60;99.90
18229;DHT22;9239;50.932;3.142;2022-12-29T02:32:51;10.60;99.90
18229;DHT22;9239;50.932;3.142;2022-12-29T02:35:25;10.50;99.90
18229;DHT22;9239;50.932;3.142;2022-12-29T02:38:03;10.50;99.90
18229;DHT22;9239;50.932;3.142;2022-12-29T02:40:38;10.40;99.90
18229;DHT22;9239;50.932;3.142;2022-12-29T02:43:13;10.40;99.90
18229;DHT22;9239;50.932;3.142;2022-12-29T02:45:47;10.30;99.90
18229;DHT22;9239;50.932;3.142;2022-12-29T02:48:20;10.30;99.90
18229;DHT22;9239;50.932;3.142;2022-12-29T02:50:54;10.30;99.90
18229;DHT22;9239;50.932;3.142;2022-12-29T02:53:24;10.20;99.90
18229;DHT22;9239;50.932;3.142;2022-12-29T02:56:05;10.20;99.90
18229;DHT22;9239;50.932;3.142;2022-12-29T02:58:32;10.20;99.90
18229;DHT22;9239;50.932;3.142;2022-12-29T03:01:11;10.20;99.90
18229;DHT22;9239;50.932;3.142;2022-12-29T03:03:52;10.20;99.90
18229;DHT22;9239;50.932;3.142;2022-12-29T03:06:35;10.30;99.90
18229;DHT22;9239;50.932;3.142;2022-12-29T03:09:13;10.30;99.90
18229;DHT22;9239;50.932;3.142;2022-12-29T03:11:48;10.30;99.90
18229;DHT22;9239;50.932;3.142;2022-12-29T03:14:39;10.30;99.90
18229;DHT22;9239;50.932;3.142;2022-12-29T03:17:29;10.40;99.90
18229;DHT22;9239;50.932;3.142;2022-12-29T03:20:03;10.40;99.90
18229;DHT22;9239;50.932;3.142;2022-12-29T03:22:33;10.50;99.90
18229;DHT22;9239;50.932;3.142;2022-12-29T03:25:06;10.40;99.90
18229;DHT22;9239;50.932;3.142;2022-12-29T03:27:39;10.40;99.90
18229;DHT22;9239;50.932;3.142;2022-12-29T03:30:07;10.40;99.90
18229;DHT22;9239;50.932;3.142;2022-12-29T03:32:38;10.50;99.90
18229;DHT22;9239;50.932;3.142;2022-12-29T03:35:11;10.50;99.90
18229;DHT22;9239;50.932;3.142;2022-12-29T03:37:43;10.50;99.90
18229;DHT22;9239;50.932;3.142;2022-12-29T03:40:11;10.50;99.90
18229;DHT22;9239;50.932;3.142;2022-12-29T03:42:39;10.60;99.90
18229;DHT22;9239;50.932;3.142;2022-12-29T03:45:08;10.60;99.90
18229;DHT22;9239;50.932;3.142;2022-12-29T03:47:35;10.60;99.90
18229;DHT22;9239;50.932;3.142;2022-12-29T03:50:02;10.60;99.90
18229;DHT22;9239;50.932;3.142;2022-12-29T03:52:31;10.70;99.90
18229;DHT22;9239;50.932;3.142;2022-12-29T03:54:57;10.70;99.90
18229;DHT22;9239;50.932;3.142;2022-12-29T03:57:24;10.70;99.90
18229;DHT22;9239;50.932;3.142;2022-12-29T03:59:51;10.70;99.90
18229;DHT22;9239;50.932;3.142;2022-12-29T04:02:18;10.70;99.90
18229;DHT22;9239;50.932;3.142;2022-12-29T04:04:45;10.60;99.90
18229;DHT22;9239;50.932;3.142;2022-12-29T04:07:11;10.60;99.90
18229;DHT22;9239;50.932;3.142;2022-12-29T04:09:40;10.50;99.90
18229;DHT22;9239;50.932;3.142;2022-12-29T04:12:07;10.50;99.90
18229;DHT22;9239;50.932;3.142;2022-12-29T04:14:33;10.50;99.90
18229;DHT22;9239;50.932;3.142;2022-12-29T04:17:00;10.50;99.90
18229;DHT22;9239;50.932;3.142;2022-12-29T04:19:27;10.50;99.90
18229;DHT22;9239;50.932;3.142;2022-12-29T04:21:54;10.50;99.90
18229;DHT22;9239;50.932;3.142;2022-12-29T04:24:21;10.60;99.90
18229;DHT22;9239;50.932;3.142;2022-12-29T04:26:49;10.60;99.90
18229;DHT22;9239;50.932;3.142;2022-12-29T04:29:16;10.60;99.90
18229;DHT22;9239;50.932;3.142;2022-12-29T04:31:42;10.60;99.90
18229;DHT22;9239;50.932;3.142;2022-12-29T04:34:09;10.70;99.90
18229;DHT22;9239;50.932;3.142;2022-12-29T04:36:36;10.60;99.90
18229;DHT22;9239;50.932;3.142;2022-12-29T04:39:05;10.70;99.90
18229;DHT22;9239;50.932;3.142;2022-12-29T04:41:32;10.70;99.90
18229;DHT22;9239;50.932;3.142;2022-12-29T04:44:00;10.70;99.90
18229;DHT22;9239;50.932;3.142;2022-12-29T04:46:27;10.60;99.90
18229;DHT22;9239;50.932;3.142;2022-12-29T04:48:54;10.70;99.90
18229;DHT22;9239;50.932;3.142;2022-12-29T04:51:21;10.70;99.90
18229;DHT22;9239;50.932;3.142;2022-12-29T04:53:47;10.70;99.90
18229;DHT22;9239;50.932;3.142;2022-12-29T04:56:14;10.70;99.90
18229;DHT22;9239;50.932;3.142;2022-12-29T04:58:41;10.70;99.90
18229;DHT22;9239;50.932;3.142;2022-12-29T05:01:09;10.70;99.90
18229;DHT22;9239;50.932;3.142;2022-12-29T05:03:36;10.70;99.90
18229;DHT22;9239;50.932;3.142;2022-12-29T05:06:03;10.70;99.90
18229;DHT22;9239;50.932;3.142;2022-12-29T05:08:30;10.70;99.90
18229;DHT22;9239;50.932;3.142;2022-12-29T05:10:57;10.70;99.90
18229;DHT22;9239;50.932;3.142;2022-12-29T05:13:23;10.70;99.90
18229;DHT22;9239;50.932;3.142;2022-12-29T05:15:51;10.70;99.90
18229;DHT22;9239;50.932;3.142;2022-12-29T05:18:20;10.80;99.90
18229;DHT22;9239;50.932;3.142;2022-12-29T05:20:47;10.80;99.90
18229;DHT22;9239;50.932;3.142;2022-12-29T05:23:14;10.80;99.90
18229;DHT22;9239;50.932;3.142;2022-12-29T05:25:41;10.80;99.90
18229;DHT22;9239;50.932;3.142;2022-12-29T05:28:10;10.80;99.90
18229;DHT22;9239;50.932;3.142;2022-12-29T05:30:37;10.80;99.90
18229;DHT22;9239;50.932;3.142;2022-12-29T05:33:04;10.90;99.90
18229;DHT22;9239;50.932;3.142;2022-12-29T05:35:33;10.90;99.90
18229;DHT22;9239;50.932;3.142;2022-12-29T05:38:00;10.90;99.90
18229;DHT22;9239;50.932;3.142;2022-12-29T05:40:27;10.90;99.90
18229;DHT22;9239;50.932;3.142;2022-12-29T05:42:53;10.80;99.90
18229;DHT22;9239;50.932;3.142;2022-12-29T05:45:20;10.80;99.90
18229;DHT22;9239;50.932;3.142;2022-12-29T05:47:47;10.80;99.90
18229;DHT22;9239;50.932;3.142;2022-12-29T05:50:14;10.80;99.90
18229;DHT22;9239;50.932;3.142;2022-12-29T05:52:42;10.70;99.90
18229;DHT22;9239;50.932;3.142;2022-12-29T05:55:09;10.70;99.90
18229;DHT22;9239;50.932;3.142;2022-12-29T05:57:36;10.80;99.90
18229;DHT22;9239;50.932;3.142;2022-12-29T06:00:03;10.80;99.90
18229;DHT22;9239;50.932;3.142;2022-12-29T06:02:30;10.80;99.90
18229;DHT22;9239;50.932;3.142;2022-12-29T06:04:57;10.90;99.90
18229;DHT22;9239;50.932;3.142;2022-12-29T06:07:24;10.90;99.90
18229;DHT22;9239;50.932;3.142;2022-12-29T06:09:52;10.90;99.90
18229;DHT22;9239;50.932;3.142;2022-12-29T06:12:19;10.90;99.90
18229;DHT22;9239;50.932;3.142;2022-12-29T06:14:46;10.70;99.90
18229;DHT22;9239;50.932;3.142;2022-12-29T06:17:13;10.50;99.90
18229;DHT22;9239;50.932;3.142;2022-12-29T06:19:40;10.20;99.90
18229;DHT22;9239;50.932;3.142;2022-12-29T06:22:07;10.10;99.90
18229;DHT22;9239;50.932;3.142;2022-12-29T06:24:33;10.00;99.90
18229;DHT22;9239;50.932;3.142;2022-12-29T06:27:02;9.90;99.90
18229;DHT22;9239;50.932;3.142;2022-12-29T06:29:28;9.80;99.90
18229;DHT22;9239;50.932;3.142;2022-12-29T06:31:55;9.80;99.90
18229;DHT22;9239;50.932;3.142;2022-12-29T06:34:23;9.90;99.90
18229;DHT22;9239;50.932;3.142;2022-12-29T06:36:50;10.00;99.90
18229;DHT22;9239;50.932;3.142;2022-12-29T06:39:17;10.10;99.90
18229;DHT22;9239;50.932;3.142;2022-12-29T06:41:44;10.20;99.90
18229;DHT22;9239;50.932;3.142;2022-12-29T06:44:12;10.20;99.90
18229;DHT22;9239;50.932;3.142;2022-12-29T06:46:39;10.20;99.90
18229;DHT22;9239;50.932;3.142;2022-12-29T06:49:06;10.30;99.90
18229;DHT22;9239;50.932;3.142;2022-12-29T06:51:32;10.30;99.90
18229;DHT22;9239;50.932;3.142;2022-12-29T06:53:59;10.30;99.90
18229;DHT22;9239;50.932;3.142;2022-12-29T06:56:26;10.40;99.90
18229;DHT22;9239;50.932;3.142;2022-12-29T06:58:53;10.40;99.90
18229;DHT22;9239;50.932;3.142;2022-12-29T07:01:21;10.40;99.90
18229;DHT22;9239;50.932;3.142;2022-12-29T07:03:48;10.40;99.90
18229;DHT22;9239;50.932;3.142;2022-12-29T07:06:15;10.40;99.90
18229;DHT22;9239;50.932;3.142;2022-12-29T07:08:41;10.50;99.90
18229;DHT22;9239;50.932;3.142;2022-12-29T07:11:08;10.50;99.90
18229;DHT22;9239;50.932;3.142;2022-12-29T07:13:35;10.50;99.90
18229;DHT22;9239;50.932;3.142;2022-12-29T07:16:05;10.50;99.90
18229;DHT22;9239;50.932;3.142;2022-12-29T07:18:35;10.50;99.90
18229;DHT22;9239;50.932;3.142;2022-12-29T07:21:02;10.50;99.90
18229;DHT22;9239;50.932;3.142;2022-12-29T07:23:29;10.60;99.90
18229;DHT22;9239;50.932;3.142;2022-12-29T07:26:00;10.60;99.90
18229;DHT22;9239;50.932;3.142;2022-12-29T07:28:27;10.60;99.90
18229;DHT22;9239;50.932;3.142;2022-12-29T07:30:54;10.60;99.90
18229;DHT22;9239;50.932;3.142;2022-12-29T07:33:21;10.60;99.90
18229;DHT22;9239;50.932;3.142;2022-12-29T07:35:50;10.60;99.90
18229;DHT22;9239;50.932;3.142;2022-12-29T07:38:17;10.50;99.90
18229;DHT22;9239;50.932;3.142;2022-12-29T07:40:44;10.40;99.90
18229;DHT22;9239;50.932;3.142;2022-12-29T07:43:11;10.40;99.90
18229;DHT22;9239;50.932;3.142;2022-12-29T07:45:37;10.20;99.90
18229;DHT22;9239;50.932;3.142;2022-12-29T07:48:05;10.10;99.90
18229;DHT22;9239;50.932;3.142;2022-12-29T07:50:33;10.10;99.90
18229;DHT22;9239;50.932;3.142;2022-12-29T07:53:02;10.20;99.90
18229;DHT22;9239;50.932;3.142;2022-12-29T07:55:29;10.30;99.90
18229;DHT22;9239;50.932;3.142;2022-12-29T07:57:56;10.30;99.90
18229;DHT22;9239;50.932;3.142;2022-12-29T08:00:23;10.40;99.90
18229;DHT22;9239;50.932;3.142;2022-12-29T08:02:50;10.40;99.90
18229;DHT22;9239;50.932;3.142;2022-12-29T08:05:17;10.40;99.90
18229;DHT22;9239;50.932;3.142;2022-12-29T08:07:45;10.30;99.90
18229;DHT22;9239;50.932;3.142;2022-12-29T08:10:14;10.30;99.90
18229;DHT22;9239;50.932;3.142;2022-12-29T08:12:41;10.30;99.90
18229;DHT22;9239;50.932;3.142;2022-12-29T08:15:10;10.30;99.90
18229;DHT22;9239;50.932;3.142;2022-12-29T08:17:37;10.30;99.90
18229;DHT22;9239;50.932;3.142;2022-12-29T08:20:05;10.20;99.90
18229;DHT22;9239;50.932;3.142;2022-12-29T08:22:32;10.20;99.90
18229;DHT22;9239;50.932;3.142;2022-12-29T08:24:58;10.10;99.90
18229;DHT22;9239;50.932;3.142;2022-12-29T08:27:27;10.10;99.90
18229;DHT22;9239;50.932;3.142;2022-12-29T08:29:54;10.00;99.90
18229;DHT22;9239;50.932;3.142;2022-12-29T08:32:21;9.90;99.90
18229;DHT22;9239;50.932;3.142;2022-12-29T08:34:47;9.90;99.90
18229;DHT22;9239;50.932;3.142;2022-12-29T08:37:14;9.90;99.90
18229;DHT22;9239;50.932;3.142;2022-12-29T08:39:41;9.90;99.90
18229;DHT22;9239;50.932;3.142;2022-12-29T08:42:08;9.80;99.90
18229;DHT22;9239;50.932;3.142;2022-12-29T08:44:36;9.90;99.90
18229;DHT22;9239;50.932;3.142;2022-12-29T08:47:03;9.90;99.90
18229;DHT22;9239;50.932;3.142;2022-12-29T08:49:30;9.90;99.90
18229;DHT22;9239;50.932;3.142;2022-12-29T08:51:58;10.00;99.90
18229;DHT22;9239;50.932;3.142;2022-12-29T08:54:25;10.00;99.90
18229;DHT22;9239;50.932;3.142;2022-12-29T08:56:52;10.00;99.90
18229;DHT22;9239;50.932;3.142;2022-12-29T08:59:19;9.90;99.90
18229;DHT22;9239;50.932;3.142;2022-12-29T09:01:47;9.90;99.90
18229;DHT22;9239;50.932;3.142;2022-12-29T09:04:14;9.80;99.90
18229;DHT22;9239;50.932;3.142;2022-12-29T09:06:41;9.70;99.90
18229;DHT22;9239;50.932;3.142;2022-12-29T09:09:08;9.70;99.90
18229;DHT22;9239;50.932;3.142;2022-12-29T09:11:35;9.60;99.90
18229;DHT22;9239;50.932;3.142;2022-12-29T09:14:02;9.70;99.90
18229;DHT22;9239;50.932;3.142;2022-12-29T09:16:29;9.70;99.90
18229;DHT22;9239;50.932;3.142;2022-12-29T09:18:57;9.70;99.90
18229;DHT22;9239;50.932;3.142;2022-12-29T09:21:25;9.80;99.90
18229;DHT22;9239;50.932;3.142;2022-12-29T09:23:51;9.80;99.90
18229;DHT22;9239;50.932;3.142;2022-12-29T09:26:18;9.80;99.90
18229;DHT22;9239;50.932;3.142;2022-12-29T09:28:45;9.80;99.90
18229;DHT22;9239;50.932;3.142;2022-12-29T09:31:12;9.80;99.90
18229;DHT22;9239;50.932;3.142;2022-12-29T09:33:39;9.80;99.90
18229;DHT22;9239;50.932;3.142;2022-12-29T09:36:08;9.90;99.90
18229;DHT22;9239;50.932;3.142;2022-12-29T09:38:35;9.90;99.90
18229;DHT22;9239;50.932;3.142;2022-12-29T09:41:10;9.90;99.90
18229;DHT22;9239;50.932;3.142;2022-12-29T09:43:49;10.00;99.90
18229;DHT22;9239;50.932;3.142;2022-12-29T09:46:24;10.00;99.90
18229;DHT22;9239;50.932;3.142;2022-12-29T09:49:04;10.00;99.90
18229;DHT22;9239;50.932;3.142;2022-12-29T09:51:36;10.10;99.90
18229;DHT22;9239;50.932;3.142;2022-12-29T09:54:22;10.10;99.90
18229;DHT22;9239;50.932;3.142;2022-12-29T09:56:51;10.20;99.90
18229;DHT22;9239;50.932;3.142;2022-12-29T09:59:21;10.10;99.90
18229;DHT22;9239;50.932;3.142;2022-12-29T10:01:54;10.10;99.90
18229;DHT22;9239;50.932;3.142;2022-12-29T10:04:26;10.00;99.90
18229;DHT22;9239;50.932;3.142;2022-12-29T10:06:58;10.10;99.90
18229;DHT22;9239;50.932;3.142;2022-12-29T10:09:33;10.10;99.90
18229;DHT22;9239;50.932;3.142;2022-12-29T10:12:11;10.10;99.90
18229;DHT22;9239;50.932;3.142;2022-12-29T10:14:54;10.10;99.90
18229;DHT22;9239;50.932;3.142;2022-12-29T10:17:28;10.10;99.90
18229;DHT22;9239;50.932;3.142;2022-12-29T10:20:15;10.20;99.90
18229;DHT22;9239;50.932;3.142;2022-12-29T10:22:56;10.30;99.90
18229;DHT22;9239;50.932;3.142;2022-12-29T10:25:26;10.30;99.90
18229;DHT22;9239;50.932;3.142;2022-12-29T10:27:57;10.30;99.90
18229;DHT22;9239;50.932;3.142;2022-12-29T10:30:25;10.30;99.90
18229;DHT22;9239;50.932;3.142;2022-12-29T10:32:55;10.30;99.90
18229;DHT22;9239;50.932;3.142;2022-12-29T10:35:25;10.30;99.90
18229;DHT22;9239;50.932;3.142;2022-12-29T10:37:58;10.30;99.90
18229;DHT22;9239;50.932;3.142;2022-12-29T10:40:31;10.30;99.90
18229;DHT22;9239;50.932;3.142;2022-12-29T10:43:00;10.40;99.90
18229;DHT22;9239;50.932;3.142;2022-12-29T10:45:29;10.40;99.90
18229;DHT22;9239;50.932;3.142;2022-12-29T10:48:04;10.40;99.90
18229;DHT22;9239;50.932;3.142;2022-12-29T10:50:33;10.50;99.90
18229;DHT22;9239;50.932;3.142;2022-12-29T10:53:03;10.40;99.90
18229;DHT22;9239;50.932;3.142;2022-12-29T10:55:33;10.40;99.90
18229;DHT22;9239;50.932;3.142;2022-12-29T10:58:04;10.50;99.90
18229;DHT22;9239;50.932;3.142;2022-12-29T11:00:33;10.50;99.90
18229;DHT22;9239;50.932;3.142;2022-12-29T11:03:23;10.50;99.90
18229;DHT22;9239;50.932;3.142;2022-12-29T11:05:55;10.50;99.90
18229;DHT22;9239;50.932;3.142;2022-12-29T11:08:27;10.40;99.90
18229;DHT22;9239;50.932;3.142;2022-12-29T11:11:01;10.20;99.90
18229;DHT22;9239;50.932;3.142;2022-12-29T11:13:29;10.00;99.90
18229;DHT22;9239;50.932;3.142;2022-12-29T11:15:56;9.80;99.90
18229;DHT22;9239;50.932;3.142;2022-12-29T11:18:26;9.80;99.90
18229;DHT22;9239;50.932;3.142;2022-12-29T11:20:54;9.60;99.90
18229;DHT22;9239;50.932;3.142;2022-12-29T11:23:36;9.60;99.90
18229;DHT22;9239;50.932;3.142;2022-12-29T11:26:12;9.50;99.90
18229;DHT22;9239;50.932;3.142;2022-12-29T11:28:41;9.50;99.90
18229;DHT22;9239;50.932;3.142;2022-12-29T11:31:09;9.50;99.90
18229;DHT22;9239;50.932;3.142;2022-12-29T11:33:37;9.50;99.90
18229;DHT22;9239;50.932;3.142;2022-12-29T11:36:07;9.50;99.90
18229;DHT22;9239;50.932;3.142;2022-12-29T11:38:38;9.50;99.90
18229;DHT22;9239;50.932;3.142;2022-12-29T11:41:06;9.50;99.90
18229;DHT22;9239;50.932;3.142;2022-12-29T11:43:38;9.60;99.90
18229;DHT22;9239;50.932;3.142;2022-12-29T11:46:14;9.70;99.90
18229;DHT22;9239;50.932;3.142;2022-12-29T11:48:43;9.70;99.90
18229;DHT22;9239;50.932;3.142;2022-12-29T11:51:11;9.70;99.90
18229;DHT22;9239;50.932;3.142;2022-12-29T11:53:43;9.70;99.90
18229;DHT22;9239;50.932;3.142;2022-12-29T11:56:15;9.70;99.90
18229;DHT22;9239;50.932;3.142;2022-12-29T11:58:43;9.80;99.90
18229;DHT22;9239;50.932;3.142;2022-12-29T12:01:15;9.80;99.90
18229;DHT22;9239;50.932;3.142;2022-12-29T12:03:46;9.80;99.90
18229;DHT22;9239;50.932;3.142;2022-12-29T12:06:17;9.90;99.90
18229;DHT22;9239;50.932;3.142;2022-12-29T12:08:54;10.00;99.90
18229;DHT22;9239;50.932;3.142;2022-12-29T12:11:26;10.00;99.90
18229;DHT22;9239;50.932;3.142;2022-12-29T12:14:00;10.00;99.90
18229;DHT22;9239;50.932;3.142;2022-12-29T12:16:33;10.00;99.90
18229;DHT22;9239;50.932;3.142;2022-12-29T12:19:04;10.00;99.90
18229;DHT22;9239;50.932;3.142;2022-12-29T12:21:39;9.90;99.90
18229;DHT22;9239;50.932;3.142;2022-12-29T12:24:33;9.90;99.90
18229;DHT22;9239;50.932;3.142;2022-12-29T12:27:10;9.90;99.90
18229;DHT22;9239;50.932;3.142;2022-12-29T12:29:43;9.90;99.90
18229;DHT22;9239;50.932;3.142;2022-12-29T12:32:16;9.90;99.90
18229;DHT22;9239;50.932;3.142;2022-12-29T12:34:46;9.80;99.90
18229;DHT22;9239;50.932;3.142;2022-12-29T12:37:39;9.70;99.90
18229;DHT22;9239;50.932;3.142;2022-12-29T12:40:33;9.60;99.90
18229;DHT22;9239;50.932;3.142;2022-12-29T12:43:17;9.60;99.90
18229;DHT22;9239;50.932;3.142;2022-12-29T12:45:55;9.60;99.90
18229;DHT22;9239;50.932;3.142;2022-12-29T12:48:43;9.50;99.90
18229;DHT22;9239;50.932;3.142;2022-12-29T12:51:17;9.40;99.90
18229;DHT22;9239;50.932;3.142;2022-12-29T12:54:00;9.30;99.90
18229;DHT22;9239;50.932;3.142;2022-12-29T12:56:52;9.20;99.90
18229;DHT22;9239;50.932;3.142;2022-12-29T12:59:33;9.10;99.90
18229;DHT22;9239;50.932;3.142;2022-12-29T13:02:20;9.10;99.90
18229;DHT22;9239;50.932;3.142;2022-12-29T13:05:03;9.00;99.90
18229;DHT22;9239;50.932;3.142;2022-12-29T13:07:43;9.00;99.90
18229;DHT22;9239;50.932;3.142;2022-12-29T13:10:36;9.00;99.90
18229;DHT22;9239;50.932;3.142;2022-12-29T13:13:27;9.00;99.90
18229;DHT22;9239;50.932;3.142;2022-12-29T13:16:01;8.90;99.90
18229;DHT22;9239;50.932;3.142;2022-12-29T13:18:34;8.90;99.90
18229;DHT22;9239;50.932;3.142;2022-12-29T13:21:07;8.90;99.90
18229;DHT22;9239;50.932;3.142;2022-12-29T13:23:40;9.00;99.90
18229;DHT22;9239;50.932;3.142;2022-12-29T13:26:12;9.10;99.90
18229;DHT22;9239;50.932;3.142;2022-12-29T13:28:52;9.20;99.90
18229;DHT22;9239;50.932;3.142;2022-12-29T13:31:27;9.20;99.90
18229;DHT22;9239;50.932;3.142;2022-12-29T13:34:01;9.30;99.90
18229;DHT22;9239;50.932;3.142;2022-12-29T13:36:35;9.30;99.90
18229;DHT22;9239;50.932;3.142;2022-12-29T13:39:08;9.20;99.90
18229;DHT22;9239;50.932;3.142;2022-12-29T13:41:39;9.20;99.90
18229;DHT22;9239;50.932;3.142;2022-12-29T13:44:15;9.20;99.90
18229;DHT22;9239;50.932;3.142;2022-12-29T13:46:44;9.20;99.90
18229;DHT22;9239;50.932;3.142;2022-12-29T13:49:15;9.20;99.90
18229;DHT22;9239;50.932;3.142;2022-12-29T13:51:47;9.20;99.90
18229;DHT22;9239;50.932;3.142;2022-12-29T13:54:29;9.10;99.90
18229;DHT22;9239;50.932;3.142;2022-12-29T13:57:06;9.10;99.90
18229;DHT22;9239;50.932;3.142;2022-12-29T13:59:47;9.10;99.90
18229;DHT22;9239;50.932;3.142;2022-12-29T14:02:26;9.20;99.90
18229;DHT22;9239;50.932;3.142;2022-12-29T14:05:00;9.20;99.90
18229;DHT22;9239;50.932;3.142;2022-12-29T14:07:27;9.40;99.90
18229;DHT22;9239;50.932;3.142;2022-12-29T14:09:56;9.40;99.90
18229;DHT22;9239;50.932;3.142;2022-12-29T14:12:32;9.40;99.90
18229;DHT22;9239;50.932;3.142;2022-12-29T14:15:22;9.40;99.90
18229;DHT22;9239;50.932;3.142;2022-12-29T14:18:09;9.50;99.90
18229;DHT22;9239;50.932;3.142;2022-12-29T14:20:39;9.50;99.90
18229;DHT22;9239;50.932;3.142;2022-12-29T14:23:24;9.50;99.90
18229;DHT22;9239;50.932;3.142;2022-12-29T14:25:56;9.50;99.90
18229;DHT22;9239;50.932;3.142;2022-12-29T14:28:24;9.50;99.90
18229;DHT22;9239;50.932;3.142;2022-12-29T14:30:54;9.40;99.90
18229;DHT22;9239;50.932;3.142;2022-12-29T14:33:22;9.40;99.90
18229;DHT22;9239;50.932;3.142;2022-12-29T14:35:52;9.30;99.90
18229;DHT22;9239;50.932;3.142;2022-12-29T14:38:30;9.30;99.90
18229;DHT22;9239;50.932;3.142;2022-12-29T14:41:26;9.30;99.90
18229;DHT22;9239;50.932;3.142;2022-12-29T14:43:57;9.20;99.90
18229;DHT22;9239;50.932;3.142;2022-12-29T14:46:42;9.30;99.90
18229;DHT22;9239;50.932;3.142;2022-12-29T14:49:15;9.20;99.90
18229;DHT22;9239;50.932;3.142;2022-12-29T14:51:42;9.20;99.90
18229;DHT22;9239;50.932;3.142;2022-12-29T14:54:48;9.20;99.90
18229;DHT22;9239;50.932;3.142;2022-12-29T14:57:32;9.20;99.90
18229;DHT22;9239;50.932;3.142;2022-12-29T15:00:06;9.10;99.90
18229;DHT22;9239;50.932;3.142;2022-12-29T15:02:39;9.10;99.90
18229;DHT22;9239;50.932;3.142;2022-12-29T15:05:23;9.00;99.90
18229;DHT22;9239;50.932;3.142;2022-12-29T15:07:52;9.00;99.90
18229;DHT22;9239;50.932;3.142;2022-12-29T15:10:20;9.00;99.90
18229;DHT22;9239;50.932;3.142;2022-12-29T15:12:53;8.90;99.90
18229;DHT22;9239;50.932;3.142;2022-12-29T15:15:22;9.00;99.90
18229;DHT22;9239;50.932;3.142;2022-12-29T15:17:51;8.90;99.90
18229;DHT22;9239;50.932;3.142;2022-12-29T15:20:24;8.90;99.90
18229;DHT22;9239;50.932;3.142;2022-12-29T15:22:54;8.90;99.90
18229;DHT22;9239;50.932;3.142;2022-12-29T15:25:23;8.80;99.90
18229;DHT22;9239;50.932;3.142;2022-12-29T15:27:51;8.80;99.90
18229;DHT22;9239;50.932;3.142;2022-12-29T15:30:19;8.70;99.90
18229;DHT22;9239;50.932;3.142;2022-12-29T15:32:47;8.80;99.90
18229;DHT22;9239;50.932;3.142;2022-12-29T15:35:30;8.70;99.90
18229;DHT22;9239;50.932;3.142;2022-12-29T15:37:58;8.80;99.90
18229;DHT22;9239;50.932;3.142;2022-12-29T15:40:28;8.70;99.90
18229;DHT22;9239;50.932;3.142;2022-12-29T15:43:12;8.80;99.90
18229;DHT22;9239;50.932;3.142;2022-12-29T15:45:42;8.80;99.90
18229;DHT22;9239;50.932;3.142;2022-12-29T15:48:14;8.70;99.90
18229;DHT22;9239;50.932;3.142;2022-12-29T15:50:44;8.60;99.90
18229;DHT22;9239;50.932;3.142;2022-12-29T15:53:18;8.50;99.90
18229;DHT22;9239;50.932;3.142;2022-12-29T15:55:50;8.40;99.90
18229;DHT22;9239;50.932;3.142;2022-12-29T15:58:21;8.40;99.90
18229;DHT22;9239;50.932;3.142;2022-12-29T16:00:50;8.30;99.90
18229;DHT22;9239;50.932;3.142;2022-12-29T16:03:19;8.30;99.90
18229;DHT22;9239;50.932;3.142;2022-12-29T16:05:52;8.20;99.90
18229;DHT22;9239;50.932;3.142;2022-12-29T16:08:31;8.10;99.90
18229;DHT22;9239;50.932;3.142;2022-12-29T16:11:00;8.10;99.90
18229;DHT22;9239;50.932;3.142;2022-12-29T16:13:30;8.10;99.90
18229;DHT22;9239;50.932;3.142;2022-12-29T16:16:01;8.10;99.90
18229;DHT22;9239;50.932;3.142;2022-12-29T16:18:33;8.10;99.90
18229;DHT22;9239;50.932;3.142;2022-12-29T16:21:03;8.10;99.90
18229;DHT22;9239;50.932;3.142;2022-12-29T16:23:32;8.10;99.90
18229;DHT22;9239;50.932;3.142;2022-12-29T16:25:59;8.00;99.90